createdAt,value
2023-03-20T00:01:30.891Z,0.30
2023-03-20T00:04:01.097Z,0.50
2023-03-20T00:06:30.993Z,0.60
2023-03-20T00:09:09.044Z,0.50
2023-03-20T00:11:50.330Z,0.60
2023-03-20T00:14:20.506Z,0.50
2023-03-20T00:16:51.769Z,0.40
2023-03-20T00:19:24.874Z,0.70
2023-03-20T00:21:55.987Z,0.50
2023-03-20T00:24:27.259Z,0.60
2023-03-20T00:27:03.579Z,0.53
2023-03-20T00:29:33.594Z,0.40
2023-03-20T00:32:03.440Z,0.60
2023-03-20T00:34:33.330Z,0.50
2023-03-20T00:37:03.527Z,0.50
2023-03-20T00:39:36.176Z,0.60
2023-03-20T00:42:25.669Z,0.60
2023-03-20T00:45:45.723Z,0.45
2023-03-20T00:48:40.015Z,0.50
2023-03-20T00:52:17.227Z,0.50
2023-03-20T00:54:35.909Z,0.40
2023-03-20T00:57:37.500Z,0.50
2023-03-20T01:00:38.717Z,0.47
2023-03-20T01:03:43.443Z,0.60
2023-03-20T01:06:27.415Z,0.70
2023-03-20T01:09:18.347Z,0.43
2023-03-20T01:12:05.629Z,0.70
2023-03-20T01:14:35.785Z,0.70
2023-03-20T01:17:05.626Z,0.60
2023-03-20T01:19:35.539Z,0.60
2023-03-20T01:25:17.083Z,0.53
2023-03-20T01:27:52.271Z,0.80
2023-03-20T01:30:26.233Z,0.60
2023-03-20T01:35:33.118Z,0.68
2023-03-20T01:38:03.140Z,0.60
2023-03-20T01:40:39.704Z,0.68
2023-03-20T01:43:17.923Z,0.80
2023-03-20T01:46:00.968Z,0.65
2023-03-20T01:48:40.658Z,0.60
2023-03-20T01:51:45.384Z,0.80
2023-03-20T01:54:20.140Z,0.42
2023-03-20T01:57:00.495Z,0.50
2023-03-20T01:59:38.077Z,0.57
2023-03-20T02:02:09.133Z,0.50
2023-03-20T02:04:42.234Z,0.70
2023-03-20T02:07:33.125Z,0.60
2023-03-20T02:10:15.261Z,0.40
2023-03-20T02:12:51.881Z,0.60
2023-03-20T02:15:29.426Z,0.60
2023-03-20T02:17:59.692Z,0.80
2023-03-20T02:20:35.412Z,0.80
2023-03-20T02:23:38.450Z,0.73
2023-03-20T02:26:15.133Z,1.15
2023-03-20T02:29:04.546Z,1.20
2023-03-20T02:38:17.377Z,1.10
2023-03-20T02:41:01.823Z,0.80
2023-03-20T02:43:55.123Z,0.80
2023-03-20T02:47:00.715Z,0.97
2023-03-20T02:53:13.970Z,1.02
2023-03-20T02:55:46.268Z,1.30
2023-03-20T02:58:24.137Z,1.30
2023-03-20T03:01:03.037Z,1.30
2023-03-20T03:03:46.735Z,1.50
2023-03-20T03:09:38.421Z,1.30
2023-03-20T03:18:38.105Z,1.40
2023-03-20T03:21:16.426Z,1.30
2023-03-20T03:24:10.927Z,1.20
2023-03-20T03:26:42.810Z,1.35
2023-03-20T03:29:17.832Z,1.15
2023-03-20T03:31:49.022Z,1.37
2023-03-20T03:37:28.593Z,1.14
2023-03-20T03:43:16.670Z,1.27
2023-03-20T03:46:05.689Z,1.10
2023-03-20T03:48:45.424Z,1.10
2023-03-20T03:54:56.848Z,1.15
2023-03-20T03:57:45.582Z,1.13
2023-03-20T04:00:22.440Z,1.00
2023-03-20T04:02:53.698Z,1.07
2023-03-20T04:05:25.488Z,1.17
2023-03-20T04:08:00.591Z,0.80
2023-03-20T04:10:32.787Z,0.88
2023-03-20T04:13:03.853Z,0.93
2023-03-20T04:15:42.177Z,0.90
2023-03-20T04:18:18.347Z,0.80
2023-03-20T04:20:49.657Z,0.70
2023-03-20T04:23:20.829Z,1.00
2023-03-20T04:25:55.780Z,0.90
2023-03-20T04:28:25.486Z,1.00
2023-03-20T04:31:01.747Z,0.90
2023-03-20T04:36:20.939Z,0.80
2023-03-20T04:38:52.048Z,0.90
2023-03-20T04:41:51.457Z,0.90
2023-03-20T04:44:22.936Z,0.85
2023-03-20T04:47:00.316Z,0.85
2023-03-20T04:49:31.205Z,0.77
2023-03-20T04:52:01.764Z,1.00
2023-03-20T04:54:53.683Z,0.90
2023-03-20T04:57:24.392Z,1.07
2023-03-20T04:59:55.868Z,0.80
2023-03-20T05:02:27.613Z,0.90
2023-03-20T05:04:58.709Z,0.80
2023-03-20T05:07:29.822Z,0.80
2023-03-20T05:10:09.571Z,0.60
2023-03-20T05:12:58.822Z,0.95
2023-03-20T05:15:29.085Z,0.98
2023-03-20T05:18:00.998Z,0.90
2023-03-20T05:20:31.885Z,0.78
2023-03-20T05:23:06.370Z,0.60
2023-03-20T05:25:50.947Z,0.88
2023-03-20T05:28:33.978Z,0.70
2023-03-20T05:31:21.703Z,0.80
2023-03-20T05:34:20.954Z,0.65
2023-03-20T05:36:51.912Z,1.00
2023-03-20T05:39:23.673Z,0.97
2023-03-20T05:41:54.849Z,0.78
2023-03-20T05:44:39.149Z,0.90
2023-03-20T05:47:39.343Z,0.90
2023-03-20T05:50:11.167Z,0.80
2023-03-20T05:52:42.588Z,0.80
2023-03-20T05:55:14.915Z,0.75
2023-03-20T05:58:03.300Z,0.80
2023-03-20T06:00:35.549Z,0.75
2023-03-20T06:03:07.973Z,0.70
2023-03-20T06:05:39.051Z,0.80
2023-03-20T06:08:11.261Z,0.80
2023-03-20T06:10:43.856Z,0.88
2023-03-20T06:13:26.820Z,0.70
2023-03-20T06:16:05.904Z,0.83
2023-03-20T06:18:39.840Z,0.95
2023-03-20T06:21:11.964Z,0.90
2023-03-20T06:23:44.189Z,1.00
2023-03-20T06:26:16.614Z,0.70
2023-03-20T06:28:48.039Z,0.82
2023-03-20T06:31:19.076Z,0.80
2023-03-20T06:34:04.580Z,0.80
2023-03-20T06:36:35.573Z,1.02
2023-03-20T06:39:06.540Z,0.78
2023-03-20T06:41:37.814Z,0.83
2023-03-20T06:44:10.039Z,0.90
2023-03-20T06:46:41.211Z,0.80
2023-03-20T06:49:15.682Z,0.86
2023-03-20T06:51:46.197Z,0.90
2023-03-20T06:54:17.927Z,0.70
2023-03-20T06:56:51.363Z,0.72
2023-03-20T06:59:25.755Z,0.87
2023-03-20T07:01:56.818Z,1.00
2023-03-20T07:04:29.080Z,0.90
2023-03-20T07:07:12.979Z,0.98
2023-03-20T07:09:44.225Z,0.70
2023-03-20T07:12:20.194Z,0.68
2023-03-20T07:14:52.289Z,0.80
2023-03-20T07:17:23.925Z,0.77
2023-03-20T07:19:55.936Z,0.80
2023-03-20T07:22:31.851Z,0.90
2023-03-20T07:25:09.741Z,0.82
2023-03-20T07:27:41.317Z,0.70
2023-03-20T07:30:15.004Z,0.70
2023-03-20T07:32:47.983Z,0.90
2023-03-20T07:35:21.228Z,0.90
2023-03-20T07:37:53.096Z,0.65
2023-03-20T07:40:25.315Z,0.80
2023-03-20T07:42:56.696Z,0.70
2023-03-20T07:45:27.910Z,0.70
2023-03-20T07:47:58.408Z,0.72
2023-03-20T07:50:28.978Z,1.00
2023-03-20T07:53:04.474Z,0.72
2023-03-20T07:55:36.391Z,0.98
2023-03-20T07:58:21.184Z,0.80
2023-03-20T08:00:52.263Z,0.80
2023-03-20T08:03:24.123Z,0.90
2023-03-20T08:06:16.128Z,0.57
2023-03-20T08:08:48.219Z,0.60
2023-03-20T08:11:21.064Z,0.70
2023-03-20T08:13:54.515Z,0.88
2023-03-20T08:16:27.055Z,0.70
2023-03-20T08:18:59.263Z,0.70
2023-03-20T08:21:33.224Z,0.70
2023-03-20T08:24:04.532Z,0.60
2023-03-20T08:26:36.042Z,0.50
2023-03-20T08:29:08.551Z,0.50
2023-03-20T08:31:40.237Z,0.70
2023-03-20T08:36:54.303Z,0.70
2023-03-20T08:39:25.999Z,0.60
2023-03-20T08:41:58.399Z,0.50
2023-03-20T08:44:30.337Z,0.57
2023-03-20T08:50:23.588Z,0.40
2023-03-20T08:52:55.018Z,0.40
2023-03-20T08:55:28.681Z,0.53
2023-03-20T08:58:00.689Z,0.60
2023-03-20T09:00:32.276Z,0.50
2023-03-20T09:03:05.147Z,0.40
2023-03-20T09:05:38.802Z,0.50
2023-03-20T09:08:10.960Z,0.30
2023-03-20T09:10:44.652Z,0.55
2023-03-20T09:13:26.753Z,0.52
2023-03-20T09:15:50.404Z,0.63
2023-03-20T09:18:22.974Z,0.50
2023-03-20T09:20:54.293Z,0.40
2023-03-20T09:23:26.034Z,0.47
2023-03-20T09:25:57.041Z,0.50
2023-03-20T09:28:30.079Z,0.60
2023-03-20T09:31:01.346Z,0.50
2023-03-20T09:33:32.250Z,0.60
2023-03-20T09:36:05.002Z,0.60
2023-03-20T09:38:35.398Z,0.50
2023-03-20T09:41:05.825Z,0.57
2023-03-20T09:43:44.947Z,0.70
2023-03-20T09:46:48.858Z,0.40
2023-03-20T09:49:57.318Z,0.40
2023-03-20T09:52:46.733Z,0.40
2023-03-20T09:55:18.563Z,0.64
2023-03-20T09:57:56.812Z,0.55
2023-03-20T10:00:47.609Z,0.40
2023-03-20T10:03:23.323Z,0.40
2023-03-20T10:06:06.762Z,0.57
2023-03-20T10:08:37.624Z,0.30
2023-03-20T10:11:36.236Z,0.50
2023-03-20T10:14:39.317Z,0.40
2023-03-20T10:17:43.148Z,0.40
2023-03-20T10:20:27.927Z,0.50
2023-03-20T10:23:51.520Z,0.40
2023-03-20T10:26:25.656Z,0.33
2023-03-20T10:29:26.669Z,0.37
2023-03-20T10:32:19.942Z,0.35
2023-03-20T10:41:31.872Z,0.40
2023-03-20T10:44:48.849Z,0.40
2023-03-20T10:47:20.509Z,0.40
2023-03-20T10:53:16.820Z,0.40
2023-03-20T10:56:40.319Z,0.30
2023-03-20T10:59:45.086Z,0.50
2023-03-20T11:05:32.675Z,0.30
2023-03-20T11:08:09.284Z,0.40
2023-03-20T11:16:37.577Z,0.40
2023-03-20T11:19:12.363Z,0.30
2023-03-20T11:21:49.050Z,0.50
2023-03-20T11:24:36.686Z,0.30
2023-03-20T11:27:12.814Z,0.20
2023-03-20T11:29:45.904Z,0.34
2023-03-20T11:32:30.342Z,0.30
2023-03-20T11:35:20.774Z,0.30
2023-03-20T11:38:08.299Z,0.20
2023-03-20T11:40:39.295Z,0.20
2023-03-20T11:43:24.099Z,0.30
2023-03-20T11:46:01.556Z,0.23
2023-03-20T11:48:42.994Z,0.23
2023-03-20T11:51:19.289Z,0.33
2023-03-20T11:54:08.275Z,0.30
2023-03-20T11:56:38.915Z,0.30
2023-03-20T12:02:36.535Z,0.30
2023-03-20T12:05:21.402Z,0.30
2023-03-20T12:08:10.861Z,0.20
2023-03-20T12:10:41.464Z,0.30
2023-03-20T12:13:31.657Z,0.28
2023-03-20T12:16:06.571Z,0.30
2023-03-20T12:18:42.518Z,0.30
2023-03-20T12:21:18.052Z,0.20
2023-03-20T12:24:06.871Z,0.40
2023-03-20T12:26:54.145Z,0.30
2023-03-20T12:29:32.392Z,0.27
2023-03-20T12:32:29.274Z,0.40
2023-03-20T12:35:11.064Z,0.40
2023-03-20T12:37:40.922Z,0.50
2023-03-20T12:40:13.741Z,0.30
2023-03-20T12:42:55.932Z,0.30
2023-03-20T12:45:44.712Z,0.30
2023-03-20T12:51:31.406Z,0.45
2023-03-20T12:54:15.878Z,0.40
2023-03-20T12:57:25.313Z,0.42
2023-03-20T13:00:00.715Z,0.40
2023-03-20T13:02:54.088Z,0.30
2023-03-20T13:05:29.410Z,0.40
2023-03-20T13:11:45.086Z,0.37
2023-03-20T13:14:59.992Z,0.40
2023-03-20T13:17:41.252Z,0.40
2023-03-20T13:29:43.409Z,0.40
2023-03-20T13:32:45.791Z,0.42
2023-03-20T13:35:30.985Z,0.30
2023-03-20T13:38:48.905Z,0.30
2023-03-20T13:40:37.990Z,0.40
2023-03-20T13:43:28.694Z,0.50
2023-03-20T13:46:08.220Z,0.40
2023-03-20T13:48:41.951Z,0.50
2023-03-20T13:53:53.638Z,0.42
2023-03-20T13:56:39.476Z,0.30
2023-03-20T13:59:33.453Z,0.40
2023-03-20T14:02:42.056Z,0.50
2023-03-20T14:05:47.316Z,0.40
2023-03-20T14:11:53.941Z,0.60
2023-03-20T14:14:54.021Z,0.40
2023-03-20T14:17:45.300Z,0.33
2023-03-20T14:32:57.181Z,0.40
2023-03-20T14:36:02.673Z,0.30
2023-03-20T14:38:54.280Z,0.37
2023-03-20T14:41:41.053Z,0.50
2023-03-20T14:44:59.435Z,0.40
2023-03-20T14:48:23.885Z,0.40
2023-03-20T14:50:56.782Z,0.40
2023-03-20T14:54:06.045Z,0.30
2023-03-20T14:56:36.477Z,0.30
2023-03-20T14:59:07.240Z,0.30
2023-03-20T15:01:48.236Z,0.40
2023-03-20T15:04:24.330Z,0.30
2023-03-20T15:06:57.304Z,0.30
2023-03-20T15:09:27.226Z,0.40
2023-03-20T15:14:59.993Z,0.40
2023-03-20T15:17:53.944Z,0.47
2023-03-20T15:20:40.494Z,0.30
2023-03-20T15:23:14.356Z,0.40
2023-03-20T15:25:46.360Z,0.35
2023-03-20T15:28:24.371Z,0.40
2023-03-20T15:30:55.636Z,0.40
2023-03-20T15:33:30.548Z,0.30
2023-03-20T15:36:10.157Z,0.50
2023-03-20T15:38:44.746Z,0.33
2023-03-20T15:41:20.266Z,0.30
2023-03-20T15:43:50.864Z,0.54
2023-03-20T15:46:24.513Z,0.35
2023-03-20T15:48:56.636Z,0.40
2023-03-20T15:51:27.253Z,0.37
2023-03-20T15:54:05.369Z,0.40
2023-03-20T15:56:55.018Z,0.43
2023-03-20T15:59:53.827Z,0.40
2023-03-20T16:02:24.163Z,0.45
2023-03-20T16:05:00.158Z,0.40
2023-03-20T16:07:32.429Z,0.40
2023-03-20T16:10:02.605Z,0.40
2023-03-20T16:12:38.637Z,0.40
2023-03-20T16:15:19.289Z,0.30
2023-03-20T16:17:52.697Z,0.42
2023-03-20T16:20:23.232Z,0.30
2023-03-20T16:22:54.331Z,0.40
2023-03-20T16:25:24.283Z,0.40
2023-03-20T16:27:54.441Z,0.40
2023-03-20T16:30:26.906Z,0.30
2023-03-20T16:33:16.535Z,0.40
2023-03-20T16:36:00.684Z,0.40
2023-03-20T16:39:08.508Z,0.30
2023-03-20T16:41:55.551Z,0.40
2023-03-20T16:44:28.166Z,0.37
2023-03-20T16:47:02.944Z,0.50
2023-03-20T16:49:45.196Z,0.40
2023-03-20T16:52:15.555Z,0.30
2023-03-20T16:54:45.576Z,0.40
2023-03-20T16:57:35.680Z,0.30
2023-03-20T17:00:11.838Z,0.30
2023-03-20T17:03:11.877Z,0.30
2023-03-20T17:06:12.840Z,0.40
2023-03-20T17:08:57.884Z,0.40
2023-03-20T17:11:33.684Z,0.40
2023-03-20T17:14:05.038Z,0.30
2023-03-20T17:16:35.133Z,0.30
2023-03-20T17:19:10.231Z,0.30
2023-03-20T17:21:41.985Z,0.33
2023-03-20T17:24:20.620Z,0.50
2023-03-20T17:26:57.658Z,0.30
2023-03-20T17:29:27.622Z,0.40
2023-03-20T17:31:57.534Z,0.30
2023-03-20T17:34:27.741Z,0.40
2023-03-20T17:36:59.225Z,0.40
2023-03-20T17:39:29.203Z,0.28
2023-03-20T17:42:13.449Z,0.30
2023-03-20T17:44:43.486Z,0.40
2023-03-20T17:47:18.083Z,0.20
2023-03-20T17:49:48.493Z,0.30
2023-03-20T17:52:20.553Z,0.40
2023-03-20T17:54:50.583Z,0.40
2023-03-20T17:57:34.442Z,0.30
2023-03-20T18:00:08.227Z,0.40
2023-03-20T18:02:38.189Z,0.30
2023-03-20T18:05:08.724Z,0.30
2023-03-20T18:07:38.737Z,0.30
2023-03-20T18:10:09.127Z,0.35
2023-03-20T18:12:39.837Z,0.30
2023-03-20T18:15:14.061Z,0.28
2023-03-20T18:17:44.812Z,0.37
2023-03-20T18:20:20.655Z,0.30
2023-03-20T18:22:50.889Z,0.40
2023-03-20T18:25:23.044Z,0.40
2023-03-20T18:27:53.007Z,0.30
2023-03-20T18:30:35.060Z,0.40
2023-03-20T18:33:10.149Z,0.30
2023-03-20T18:35:40.209Z,0.40
2023-03-20T18:38:12.108Z,0.40
2023-03-20T18:40:43.384Z,0.40
2023-03-20T18:43:19.684Z,0.40
2023-03-20T18:45:50.078Z,0.30
2023-03-20T18:48:32.560Z,0.42
2023-03-20T18:51:20.576Z,0.37
2023-03-20T18:53:51.692Z,0.45
2023-03-20T18:56:23.692Z,0.40
2023-03-20T18:58:54.928Z,0.40
2023-03-20T19:01:26.500Z,0.50
2023-03-20T19:03:56.675Z,0.40
2023-03-20T19:06:26.768Z,0.40
2023-03-20T19:08:56.757Z,0.60
2023-03-20T19:11:27.200Z,1.13
2023-03-20T19:13:57.285Z,1.22
2023-03-20T19:16:51.828Z,1.35
2023-03-20T19:19:24.089Z,0.90
2023-03-20T19:22:28.493Z,0.70
2023-03-20T19:24:45.773Z,0.70
2023-03-20T19:30:44.482Z,1.00
2023-03-20T19:36:56.422Z,0.80
2023-03-20T19:40:08.186Z,0.68
2023-03-20T19:43:01.610Z,0.55
2023-03-20T19:46:07.763Z,0.60
2023-03-20T19:48:57.781Z,0.60
2023-03-20T19:51:47.687Z,0.68
2023-03-20T19:55:02.298Z,0.65
2023-03-20T20:03:56.078Z,0.70
2023-03-20T20:06:47.702Z,0.60
2023-03-20T20:10:06.641Z,0.50
2023-03-20T20:13:19.082Z,0.50
2023-03-20T20:15:54.740Z,0.53
2023-03-20T20:18:40.883Z,0.60
2023-03-20T20:23:43.334Z,0.50
2023-03-20T20:26:13.442Z,0.70
2023-03-20T20:28:43.327Z,0.50
2023-03-20T20:31:14.049Z,0.50
2023-03-20T20:34:10.004Z,0.60
2023-03-20T20:39:57.546Z,0.53
2023-03-20T20:42:53.506Z,0.90
2023-03-20T20:45:45.433Z,0.50
2023-03-20T20:51:04.622Z,0.60
2023-03-20T20:53:34.457Z,0.57
2023-03-20T20:56:04.463Z,0.43
2023-03-20T20:58:34.869Z,0.50
2023-03-20T21:01:22.418Z,0.30
2023-03-20T21:04:29.050Z,0.50
2023-03-20T21:07:10.347Z,0.42
2023-03-20T21:10:04.451Z,0.50
2023-03-20T21:13:04.507Z,0.53
2023-03-20T21:15:50.132Z,0.50
2023-03-20T21:18:30.998Z,0.50
2023-03-20T21:21:10.629Z,0.70
2023-03-20T21:23:41.002Z,0.50
2023-03-20T21:26:11.233Z,0.50
2023-03-20T21:28:41.390Z,0.30
2023-03-20T21:31:25.546Z,0.42
2023-03-20T21:34:17.905Z,0.40
2023-03-20T21:40:29.289Z,0.50
2023-03-20T21:43:13.746Z,0.50
2023-03-20T21:46:45.239Z,0.60
2023-03-20T21:53:12.489Z,0.50
2023-03-20T22:01:58.346Z,0.60
2023-03-20T22:08:09.567Z,0.45
2023-03-20T22:20:03.602Z,0.50
2023-03-20T22:29:07.194Z,0.50
2023-03-20T22:38:12.680Z,1.25
2023-03-20T22:41:00.760Z,0.80
2023-03-20T22:46:39.985Z,0.90
2023-03-20T22:48:59.946Z,0.70
2023-03-20T22:51:40.938Z,0.85
2023-03-20T22:54:05.592Z,0.78
2023-03-20T22:56:35.621Z,0.90
2023-03-20T22:59:05.700Z,0.70
2023-03-20T23:01:35.652Z,1.00
2023-03-20T23:04:47.394Z,1.30
2023-03-20T23:07:16.150Z,1.50
2023-03-20T23:12:33.879Z,1.20
2023-03-20T23:15:03.771Z,1.20
2023-03-20T23:17:33.685Z,0.93
2023-03-20T23:20:24.110Z,0.80
2023-03-20T23:22:57.830Z,1.00
2023-03-20T23:28:51.560Z,0.80
2023-03-20T23:31:26.087Z,0.70
2023-03-20T23:37:16.721Z,0.77
2023-03-20T23:39:46.641Z,0.80
2023-03-20T23:42:29.800Z,0.72
2023-03-20T23:44:56.429Z,0.80
2023-03-20T23:47:43.876Z,0.75
2023-03-20T23:50:02.967Z,0.70
2023-03-20T23:53:19.149Z,0.70
2023-03-20T23:55:44.721Z,1.00
